sensor_id;sensor_type;location;lat;lon;timestamp;pressure;altitude;pressure_sealevel;temperature;humidity
79331;BME280;68797;49.782;19.054;2023-04-03T00:00:17;97509.97;;;1.52;86.18
79331;BME280;68797;49.782;19.054;2023-04-03T00:03:03;97519.41;;;1.32;87.65
79331;BME280;68797;49.782;19.054;2023-04-03T00:05:29;97503.72;;;1.32;87.48
79331;BME280;68797;49.782;19.054;2023-04-03T00:07:56;97514.25;;;1.39;86.99
79331;BME280;68797;49.782;19.054;2023-04-03T00:10:22;97511.50;;;1.24;87.77
79331;BME280;68797;49.782;19.054;2023-04-03T00:12:49;97518.59;;;1.37;88.46
79331;BME280;68797;49.782;19.054;2023-04-03T00:15:15;97526.44;;;1.42;87.93
79331;BME280;68797;49.782;19.054;2023-04-03T00:17:42;97520.25;;;1.31;87.12
79331;BME280;68797;49.782;19.054;2023-04-03T00:20:10;97524.63;;;1.30;88.49
79331;BME280;68797;49.782;19.054;2023-04-03T00:22:37;97516.84;;;1.39;87.64
79331;BME280;68797;49.782;19.054;2023-04-03T00:25:04;97518.59;;;1.39;87.94
79331;BME280;68797;49.782;19.054;2023-04-03T00:27:31;97518.53;;;1.33;88.26
79331;BME280;68797;49.782;19.054;2023-04-03T00:29:57;97509.09;;;1.47;88.04
79331;BME280;68797;49.782;19.054;2023-04-03T00:32:23;97513.31;;;1.33;87.40
79331;BME280;68797;49.782;19.054;2023-04-03T00:34:49;97515.13;;;1.41;87.22
79331;BME280;68797;49.782;19.054;2023-04-03T00:37:17;97514.16;;;1.29;87.90
79331;BME280;68797;49.782;19.054;2023-04-03T00:39:44;97516.84;;;1.38;87.73
79331;BME280;68797;49.782;19.054;2023-04-03T00:42:10;97511.63;;;1.39;86.91
79331;BME280;68797;49.782;19.054;2023-04-03T00:48:58;97522.66;;;1.05;88.59
79331;BME280;68797;49.782;19.054;2023-04-03T00:51:26;97523.63;;;1.16;88.13
79331;BME280;68797;49.782;19.054;2023-04-03T00:54:01;97524.56;;;1.23;87.84
79331;BME280;68797;49.782;19.054;2023-04-03T00:56:30;97518.59;;;1.42;87.71
79331;BME280;68797;49.782;19.054;2023-04-03T00:59:08;97524.75;;;1.45;87.35
79331;BME280;68797;49.782;19.054;2023-04-03T01:01:37;97517.78;;;1.44;87.02
79331;BME280;68797;49.782;19.054;2023-04-03T01:04:35;97525.56;;;1.40;86.40
79331;BME280;68797;49.782;19.054;2023-04-03T01:09:33;97524.78;;;1.47;86.64
79331;BME280;68797;49.782;19.054;2023-04-03T01:12:28;97530.03;;;1.53;87.26
79331;BME280;68797;49.782;19.054;2023-04-03T01:15:02;97535.25;;;1.50;86.75
79331;BME280;68797;49.782;19.054;2023-04-03T01:23:21;97534.28;;;1.39;86.84
79331;BME280;68797;49.782;19.054;2023-04-03T01:25:53;97536.97;;;1.47;86.57
79331;BME280;68797;49.782;19.054;2023-04-03T01:28:32;97540.47;;;1.49;87.03
79331;BME280;68797;49.782;19.054;2023-04-03T01:31:41;97542.19;;;1.45;86.94
79331;BME280;68797;49.782;19.054;2023-04-03T01:34:19;97537.84;;;1.47;85.99
79331;BME280;68797;49.782;19.054;2023-04-03T01:36:46;97533.41;;;1.38;85.74
79331;BME280;68797;49.782;19.054;2023-04-03T01:39:14;97543.88;;;1.43;86.13
79331;BME280;68797;49.782;19.054;2023-04-03T01:41:41;97550.03;;;1.47;85.73
79331;BME280;68797;49.782;19.054;2023-04-03T01:44:14;97549.97;;;1.37;85.49
79331;BME280;68797;49.782;19.054;2023-04-03T01:46:40;97544.56;;;1.19;86.43
79331;BME280;68797;49.782;19.054;2023-04-03T01:49:11;97551.63;;;1.31;86.93
79331;BME280;68797;49.782;19.054;2023-04-03T01:51:38;97552.47;;;1.28;85.30
79331;BME280;68797;49.782;19.054;2023-04-03T01:54:05;97556.81;;;1.25;85.89
79331;BME280;68797;49.782;19.054;2023-04-03T01:56:31;97554.03;;;1.09;86.39
79331;BME280;68797;49.782;19.054;2023-04-03T01:58:57;97558.56;;;1.26;85.02
79331;BME280;68797;49.782;19.054;2023-04-03T02:01:24;97554.19;;;1.25;85.14
79331;BME280;68797;49.782;19.054;2023-04-03T02:03:53;97551.69;;;1.37;85.05
79331;BME280;68797;49.782;19.054;2023-04-03T02:06:19;97563.03;;;1.36;85.03
79331;BME280;68797;49.782;19.054;2023-04-03T02:08:45;97563.91;;;1.41;85.90
79331;BME280;68797;49.782;19.054;2023-04-03T02:11:15;97561.28;;;1.39;85.44
79331;BME280;68797;49.782;19.054;2023-04-03T02:13:45;97561.28;;;1.35;85.34
79331;BME280;68797;49.782;19.054;2023-04-03T02:16:14;97566.44;;;1.30;85.36
79331;BME280;68797;49.782;19.054;2023-04-03T02:18:41;97566.34;;;1.21;84.59
79331;BME280;68797;49.782;19.054;2023-04-03T02:21:08;97557.47;;;1.01;85.66
79331;BME280;68797;49.782;19.054;2023-04-03T02:23:36;97559.38;;;1.20;85.89
79331;BME280;68797;49.782;19.054;2023-04-03T02:26:13;97555.13;;;1.33;84.88
79331;BME280;68797;49.782;19.054;2023-04-03T02:28:40;97563.88;;;1.35;85.15
79331;BME280;68797;49.782;19.054;2023-04-03T02:31:08;97561.22;;;1.32;84.92
79331;BME280;68797;49.782;19.054;2023-04-03T02:33:38;97556.81;;;1.25;84.71
79331;BME280;68797;49.782;19.054;2023-04-03T02:36:08;97562.06;;;1.28;85.95
79331;BME280;68797;49.782;19.054;2023-04-03T02:38:36;97554.91;;;1.08;84.99
79331;BME280;68797;49.782;19.054;2023-04-03T02:41:07;97562.84;;;1.21;84.77
79331;BME280;68797;49.782;19.054;2023-04-03T02:43:35;97555.97;;;1.27;85.45
79331;BME280;68797;49.782;19.054;2023-04-03T02:46:03;97557.59;;;1.17;84.78
79331;BME280;68797;49.782;19.054;2023-04-03T02:48:32;97564.59;;;1.22;84.75
79331;BME280;68797;49.782;19.054;2023-04-03T02:51:00;97564.69;;;1.28;84.77
79331;BME280;68797;49.782;19.054;2023-04-03T02:53:28;97566.31;;;1.18;84.92
79331;BME280;68797;49.782;19.054;2023-04-03T02:55:55;97574.75;;;0.90;85.67
79331;BME280;68797;49.782;19.054;2023-04-03T02:58:21;97570.56;;;1.05;85.87
79331;BME280;68797;49.782;19.054;2023-04-03T03:00:58;97567.22;;;1.22;86.36
79331;BME280;68797;49.782;19.054;2023-04-03T03:03:26;97569.00;;;1.23;85.52
79331;BME280;68797;49.782;19.054;2023-04-03T03:06:04;97568.06;;;1.17;86.11
79331;BME280;68797;49.782;19.054;2023-04-03T03:08:31;97565.53;;;1.27;85.00
79331;BME280;68797;49.782;19.054;2023-04-03T03:10:58;97570.81;;;1.33;85.27
79331;BME280;68797;49.782;19.054;2023-04-03T03:13:30;97578.47;;;1.13;85.65
79331;BME280;68797;49.782;19.054;2023-04-03T03:15:57;97573.41;;;1.33;85.32
79331;BME280;68797;49.782;19.054;2023-04-03T03:18:24;97571.66;;;1.30;85.42
79331;BME280;68797;49.782;19.054;2023-04-03T03:20:52;97571.66;;;1.27;85.88
79331;BME280;68797;49.782;19.054;2023-04-03T03:23:20;97574.34;;;1.36;85.30
79331;BME280;68797;49.782;19.054;2023-04-03T03:25:47;97577.84;;;1.40;85.11
79331;BME280;68797;49.782;19.054;2023-04-03T03:28:14;97573.50;;;1.42;85.04
79331;BME280;68797;49.782;19.054;2023-04-03T03:30:41;97570.78;;;1.28;84.25
79331;BME280;68797;49.782;19.054;2023-04-03T03:33:07;97569.78;;;1.14;85.37
79331;BME280;68797;49.782;19.054;2023-04-03T03:35:36;97572.41;;;1.17;84.95
79331;BME280;68797;49.782;19.054;2023-04-03T03:38:03;97571.47;;;1.10;85.27
79331;BME280;68797;49.782;19.054;2023-04-03T03:40:30;97578.44;;;1.10;85.83
79331;BME280;68797;49.782;19.054;2023-04-03T03:42:57;97579.25;;;1.03;85.83
79331;BME280;68797;49.782;19.054;2023-04-03T03:45:23;97577.63;;;1.14;85.36
79331;BME280;68797;49.782;19.054;2023-04-03T03:47:49;97584.59;;;1.13;85.49
79331;BME280;68797;49.782;19.054;2023-04-03T03:50:16;97583.72;;;1.13;85.28
79331;BME280;68797;49.782;19.054;2023-04-03T03:52:43;97582.78;;;1.09;86.05
79331;BME280;68797;49.782;19.054;2023-04-03T03:55:10;97576.84;;;1.24;85.00
79331;BME280;68797;49.782;19.054;2023-04-03T03:57:37;97586.44;;;1.24;85.14
79331;BME280;68797;49.782;19.054;2023-04-03T04:00:06;97581.31;;;1.36;84.50
79331;BME280;68797;49.782;19.054;2023-04-03T04:02:42;97583.03;;;1.34;84.71
79331;BME280;68797;49.782;19.054;2023-04-03T04:05:14;97583.75;;;1.19;83.80
79331;BME280;68797;49.782;19.054;2023-04-03T04:07:41;97577.41;;;0.94;84.07
79331;BME280;68797;49.782;19.054;2023-04-03T04:10:09;97590.13;;;0.65;84.61
79331;BME280;68797;49.782;19.054;2023-04-03T04:12:38;97590.97;;;0.63;85.65
79331;BME280;68797;49.782;19.054;2023-04-03T04:15:08;97583.97;;;0.60;85.01
79331;BME280;68797;49.782;19.054;2023-04-03T04:17:36;97597.00;;;0.57;85.18
79331;BME280;68797;49.782;19.054;2023-04-03T04:20:05;97588.31;;;0.60;85.79
79331;BME280;68797;49.782;19.054;2023-04-03T04:22:33;97590.09;;;0.62;85.91
79331;BME280;68797;49.782;19.054;2023-04-03T04:25:01;97588.47;;;0.73;86.16
79331;BME280;68797;49.782;19.054;2023-04-03T04:27:29;97596.91;;;0.51;85.41
79331;BME280;68797;49.782;19.054;2023-04-03T04:29:58;97602.09;;;0.46;85.16
79331;BME280;68797;49.782;19.054;2023-04-03T04:32:26;97607.44;;;0.57;84.93
79331;BME280;68797;49.782;19.054;2023-04-03T04:34:54;97609.13;;;0.55;84.37
79331;BME280;68797;49.782;19.054;2023-04-03T04:37:21;97610.91;;;0.56;84.47
79331;BME280;68797;49.782;19.054;2023-04-03T04:39:47;97614.34;;;0.55;84.19
79331;BME280;68797;49.782;19.054;2023-04-03T04:42:14;97626.53;;;0.54;84.86
79331;BME280;68797;49.782;19.054;2023-04-03T04:44:42;97627.31;;;0.47;82.46
79331;BME280;68797;49.782;19.054;2023-04-03T04:47:38;97613.25;;;0.35;83.11
79331;BME280;68797;49.782;19.054;2023-04-03T04:55:46;97612.75;;;0.01;84.67
79331;BME280;68797;49.782;19.054;2023-04-03T05:03:23;97623.69;;;0.36;83.42
79331;BME280;68797;49.782;19.054;2023-04-03T05:06:22;97634.81;;;0.23;84.01
79331;BME280;68797;49.782;19.054;2023-04-03T05:09:41;97643.25;;;0.05;84.38
79331;BME280;68797;49.782;19.054;2023-04-03T05:12:55;97636.00;;;-0.13;86.14
79331;BME280;68797;49.782;19.054;2023-04-03T05:18:55;97642.91;;;-0.15;85.44
79331;BME280;68797;49.782;19.054;2023-04-03T05:21:23;97651.91;;;0.03;86.57
79331;BME280;68797;49.782;19.054;2023-04-03T05:23:54;97659.13;;;0.22;85.47
79331;BME280;68797;49.782;19.054;2023-04-03T05:26:21;97667.94;;;0.28;84.34
79331;BME280;68797;49.782;19.054;2023-04-03T05:28:49;97654.88;;;0.28;84.80
79331;BME280;68797;49.782;19.054;2023-04-03T05:31:18;97657.69;;;0.41;83.71
79331;BME280;68797;49.782;19.054;2023-04-03T05:33:47;97661.19;;;0.44;84.96
79331;BME280;68797;49.782;19.054;2023-04-03T05:36:17;97660.16;;;0.33;84.88
79331;BME280;68797;49.782;19.054;2023-04-03T05:38:56;97677.47;;;0.26;85.05
79331;BME280;68797;49.782;19.054;2023-04-03T05:41:23;97660.13;;;0.30;85.55
79331;BME280;68797;49.782;19.054;2023-04-03T05:43:51;97660.88;;;0.21;85.63
79331;BME280;68797;49.782;19.054;2023-04-03T05:46:19;97671.06;;;0.05;86.67
79331;BME280;68797;49.782;19.054;2023-04-03T05:48:50;97674.78;;;0.20;86.84
79331;BME280;68797;49.782;19.054;2023-04-03T05:51:33;97677.31;;;0.14;86.20
79331;BME280;68797;49.782;19.054;2023-04-03T05:56:44;97683.53;;;-0.31;85.95
79331;BME280;68797;49.782;19.054;2023-04-03T05:59:11;97683.75;;;-0.17;86.06
79331;BME280;68797;49.782;19.054;2023-04-03T06:01:38;97690.50;;;-0.30;85.70
79331;BME280;68797;49.782;19.054;2023-04-03T06:04:04;97694.13;;;-0.21;86.15
79331;BME280;68797;49.782;19.054;2023-04-03T06:06:47;97698.31;;;-0.30;85.10
79331;BME280;68797;49.782;19.054;2023-04-03T06:09:15;97707.63;;;-0.44;85.78
79331;BME280;68797;49.782;19.054;2023-04-03T06:11:42;97697.19;;;-0.44;86.41
79331;BME280;68797;49.782;19.054;2023-04-03T06:14:10;97699.00;;;-0.40;85.37
79331;BME280;68797;49.782;19.054;2023-04-03T06:16:36;97702.63;;;-0.32;85.66
79331;BME280;68797;49.782;19.054;2023-04-03T06:19:07;97703.19;;;-0.46;85.93
79331;BME280;68797;49.782;19.054;2023-04-03T06:21:36;97697.13;;;-0.45;86.14
79331;BME280;68797;49.782;19.054;2023-04-03T06:24:05;97719.78;;;-0.44;87.28
79331;BME280;68797;49.782;19.054;2023-04-03T06:26:33;97704.97;;;-0.45;86.14
79331;BME280;68797;49.782;19.054;2023-04-03T06:29:00;97715.63;;;-0.33;86.31
79331;BME280;68797;49.782;19.054;2023-04-03T06:31:26;97719.06;;;-0.34;85.52
79331;BME280;68797;49.782;19.054;2023-04-03T06:33:53;97711.50;;;-0.22;85.31
79331;BME280;68797;49.782;19.054;2023-04-03T06:36:20;97715.75;;;-0.25;85.44
79331;BME280;68797;49.782;19.054;2023-04-03T06:38:47;97720.78;;;-0.35;85.07
79331;BME280;68797;49.782;19.054;2023-04-03T06:41:15;97719.03;;;-0.36;85.02
79331;BME280;68797;49.782;19.054;2023-04-03T06:43:43;97724.94;;;-0.46;86.28
79331;BME280;68797;49.782;19.054;2023-04-03T06:46:18;97728.38;;;-0.47;86.92
79331;BME280;68797;49.782;19.054;2023-04-03T06:48:44;97742.06;;;-0.59;85.44
79331;BME280;68797;49.782;19.054;2023-04-03T06:51:18;97750.56;;;-0.69;84.99
79331;BME280;68797;49.782;19.054;2023-04-03T06:53:46;97754.19;;;-0.61;84.65
79331;BME280;68797;49.782;19.054;2023-04-03T06:56:12;97758.88;;;-0.44;84.72
79331;BME280;68797;49.782;19.054;2023-04-03T06:58:39;97752.03;;;-0.38;83.84
79331;BME280;68797;49.782;19.054;2023-04-03T07:01:08;97761.81;;;-0.24;82.83
79331;BME280;68797;49.782;19.054;2023-04-03T07:03:39;97761.06;;;-0.19;82.05
79331;BME280;68797;49.782;19.054;2023-04-03T07:06:09;97770.91;;;-0.04;81.10
79331;BME280;68797;49.782;19.054;2023-04-03T07:08:39;97768.56;;;0.11;83.05
79331;BME280;68797;49.782;19.054;2023-04-03T07:11:06;97768.25;;;-0.06;82.24
79331;BME280;68797;49.782;19.054;2023-04-03T07:13:32;97778.34;;;0.23;81.78
79331;BME280;68797;49.782;19.054;2023-04-03T07:19:11;97763.28;;;0.63;81.33
79331;BME280;68797;49.782;19.054;2023-04-03T07:22:33;97773.34;;;0.96;78.54
79331;BME280;68797;49.782;19.054;2023-04-03T07:24:59;97771.47;;;0.87;78.91
79331;BME280;68797;49.782;19.054;2023-04-03T07:27:26;97788.81;;;0.80;78.64
79331;BME280;68797;49.782;19.054;2023-04-03T07:29:55;97795.59;;;0.68;76.64
79331;BME280;68797;49.782;19.054;2023-04-03T07:32:25;97779.16;;;0.76;76.48
79331;BME280;68797;49.782;19.054;2023-04-03T07:34:51;97783.09;;;1.07;77.45
79331;BME280;68797;49.782;19.054;2023-04-03T07:37:17;97781.50;;;1.20;74.04
79331;BME280;68797;49.782;19.054;2023-04-03T07:39:44;97788.41;;;1.12;72.91
79331;BME280;68797;49.782;19.054;2023-04-03T07:42:10;97794.44;;;1.09;72.95
79331;BME280;68797;49.782;19.054;2023-04-03T07:44:47;97790.97;;;1.10;71.44
79331;BME280;68797;49.782;19.054;2023-04-03T07:47:14;97774.53;;;1.19;70.29
79331;BME280;68797;49.782;19.054;2023-04-03T07:49:43;97777.88;;;1.09;67.21
79331;BME280;68797;49.782;19.054;2023-04-03T07:52:10;97777.88;;;1.07;68.23
79331;BME280;68797;49.782;19.054;2023-04-03T07:54:36;97777.91;;;1.10;72.02
79331;BME280;68797;49.782;19.054;2023-04-03T07:57:06;97781.59;;;0.64;68.20
79331;BME280;68797;49.782;19.054;2023-04-03T07:59:33;97788.53;;;0.64;71.81
79331;BME280;68797;49.782;19.054;2023-04-03T08:01:59;97806.44;;;0.39;71.47
79331;BME280;68797;49.782;19.054;2023-04-03T08:04:28;97793.41;;;0.41;72.96
79331;BME280;68797;49.782;19.054;2023-04-03T08:06:54;97775.22;;;0.45;73.32
79331;BME280;68797;49.782;19.054;2023-04-03T08:09:20;97791.13;;;0.61;73.45
79331;BME280;68797;49.782;19.054;2023-04-03T08:11:46;97786.44;;;0.41;71.33
79331;BME280;68797;49.782;19.054;2023-04-03T08:14:13;97806.19;;;0.24;72.76
79331;BME280;68797;49.782;19.054;2023-04-03T08:16:46;97795.44;;;0.07;73.51
79331;BME280;68797;49.782;19.054;2023-04-03T08:19:13;97803.31;;;0.10;76.78
79331;BME280;68797;49.782;19.054;2023-04-03T08:21:41;97803.75;;;-0.14;77.82
79331;BME280;68797;49.782;19.054;2023-04-03T08:24:08;97813.09;;;-0.25;79.46
79331;BME280;68797;49.782;19.054;2023-04-03T08:26:34;97803.53;;;-0.26;79.74
79331;BME280;68797;49.782;19.054;2023-04-03T08:29:04;97815.72;;;-0.25;79.64
79331;BME280;68797;49.782;19.054;2023-04-03T08:31:31;97811.19;;;0.12;78.10
79331;BME280;68797;49.782;19.054;2023-04-03T08:33:58;97797.91;;;0.51;79.60
79331;BME280;68797;49.782;19.054;2023-04-03T08:36:26;97803.66;;;0.84;75.80
79331;BME280;68797;49.782;19.054;2023-04-03T08:38:55;97818.28;;;0.72;72.15
79331;BME280;68797;49.782;19.054;2023-04-03T08:41:45;97817.88;;;0.46;68.87
79331;BME280;68797;49.782;19.054;2023-04-03T08:44:56;97821.56;;;0.60;68.63
79331;BME280;68797;49.782;19.054;2023-04-03T08:50:18;97813.03;;;0.70;66.03
79331;BME280;68797;49.782;19.054;2023-04-03T08:52:55;97817.72;;;0.91;64.41
79331;BME280;68797;49.782;19.054;2023-04-03T08:55:33;97817.28;;;1.23;65.31
79331;BME280;68797;49.782;19.054;2023-04-03T08:58:12;97816.13;;;1.69;65.06
79331;BME280;68797;49.782;19.054;2023-04-03T09:00:49;97806.78;;;1.91;61.97
79331;BME280;68797;49.782;19.054;2023-04-03T09:03:18;97801.59;;;1.95;63.31
79331;BME280;68797;49.782;19.054;2023-04-03T09:08:35;97790.78;;;1.65;64.92
79331;BME280;68797;49.782;19.054;2023-04-03T09:13:49;97806.53;;;1.01;63.72
79331;BME280;68797;49.782;19.054;2023-04-03T09:16:46;97806.31;;;0.87;60.43
79331;BME280;68797;49.782;19.054;2023-04-03T09:22:24;97808.81;;;0.78;58.86
79331;BME280;68797;49.782;19.054;2023-04-03T09:27:26;97812.72;;;1.09;62.23
79331;BME280;68797;49.782;19.054;2023-04-03T09:29:55;97815.50;;;1.20;62.43
79331;BME280;68797;49.782;19.054;2023-04-03T09:32:30;97816.75;;;1.48;58.23
79331;BME280;68797;49.782;19.054;2023-04-03T09:35:02;97823.84;;;1.57;57.64
79331;BME280;68797;49.782;19.054;2023-04-03T09:37:38;97823.09;;;1.68;60.68
79331;BME280;68797;49.782;19.054;2023-04-03T09:40:05;97820.59;;;1.78;60.70
79331;BME280;68797;49.782;19.054;2023-04-03T09:42:45;97819.25;;;2.13;59.87
79331;BME280;68797;49.782;19.054;2023-04-03T09:45:24;97815.13;;;2.40;55.52
79331;BME280;68797;49.782;19.054;2023-04-03T09:53:43;97820.28;;;2.32;54.58
79331;BME280;68797;49.782;19.054;2023-04-03T09:58:45;97829.50;;;1.93;56.14
79331;BME280;68797;49.782;19.054;2023-04-03T10:01:35;97838.84;;;1.74;55.93
79331;BME280;68797;49.782;19.054;2023-04-03T10:06:34;97835.50;;;1.86;60.47
79331;BME280;68797;49.782;19.054;2023-04-03T10:09:15;97838.00;;;1.75;56.79
79331;BME280;68797;49.782;19.054;2023-04-03T10:12:07;97840.84;;;1.95;57.41
79331;BME280;68797;49.782;19.054;2023-04-03T10:23:00;97843.81;;;2.27;55.71
79331;BME280;68797;49.782;19.054;2023-04-03T10:34:33;97833.19;;;2.11;57.50
79331;BME280;68797;49.782;19.054;2023-04-03T10:42:49;97837.25;;;1.86;56.44
79331;BME280;68797;49.782;19.054;2023-04-03T10:48:18;97839.22;;;2.07;59.40
79331;BME280;68797;49.782;19.054;2023-04-03T11:02:06;97840.59;;;1.74;57.16
79331;BME280;68797;49.782;19.054;2023-04-03T11:04:55;97844.91;;;1.70;57.07
79331;BME280;68797;49.782;19.054;2023-04-03T11:07:26;97835.72;;;2.03;60.58
79331;BME280;68797;49.782;19.054;2023-04-03T11:10:05;97837.88;;;2.45;55.29
79331;BME280;68797;49.782;19.054;2023-04-03T11:12:41;97838.03;;;2.63;58.11
79331;BME280;68797;49.782;19.054;2023-04-03T11:15:17;97837.06;;;2.54;57.71
79331;BME280;68797;49.782;19.054;2023-04-03T11:17:54;97834.84;;;2.02;54.19
79331;BME280;68797;49.782;19.054;2023-04-03T11:20:29;97835.69;;;2.01;56.46
79331;BME280;68797;49.782;19.054;2023-04-03T11:23:22;97833.84;;;1.94;55.96
79331;BME280;68797;49.782;19.054;2023-04-03T11:25:54;97829.59;;;2.02;53.19
79331;BME280;68797;49.782;19.054;2023-04-03T11:28:24;97823.66;;;2.20;56.08
79331;BME280;68797;49.782;19.054;2023-04-03T11:34:28;97827.00;;;2.07;54.86
79331;BME280;68797;49.782;19.054;2023-04-03T11:37:01;97823.63;;;2.19;56.31
79331;BME280;68797;49.782;19.054;2023-04-03T11:39:35;97821.19;;;2.34;52.38
79331;BME280;68797;49.782;19.054;2023-04-03T11:48:03;97809.69;;;2.20;54.27
79331;BME280;68797;49.782;19.054;2023-04-03T12:11:15;97804.09;;;2.79;45.86
79331;BME280;68797;49.782;19.054;2023-04-03T12:30:27;97796.97;;;2.64;50.50
79331;BME280;68797;49.782;19.054;2023-04-03T12:33:11;97800.47;;;2.61;52.39
79331;BME280;68797;49.782;19.054;2023-04-03T12:44:40;97800.03;;;3.24;51.26
79331;BME280;68797;49.782;19.054;2023-04-03T12:47:39;97802.66;;;3.22;51.46
79331;BME280;68797;49.782;19.054;2023-04-03T12:50:45;97804.34;;;3.14;52.64
79331;BME280;68797;49.782;19.054;2023-04-03T12:53:16;97793.91;;;3.29;51.52
79331;BME280;68797;49.782;19.054;2023-04-03T12:55:44;97786.91;;;3.27;50.38
79331;BME280;68797;49.782;19.054;2023-04-03T12:58:27;97803.59;;;3.38;52.82
79331;BME280;68797;49.782;19.054;2023-04-03T13:01:12;97801.78;;;3.31;50.91
79331;BME280;68797;49.782;19.054;2023-04-03T13:03:59;97796.53;;;3.28;51.09
79331;BME280;68797;49.782;19.054;2023-04-03T13:06:37;97798.16;;;3.06;48.96
79331;BME280;68797;49.782;19.054;2023-04-03T13:09:06;97804.28;;;3.09;50.96
79331;BME280;68797;49.782;19.054;2023-04-03T13:11:44;97798.28;;;3.32;51.31
79331;BME280;68797;49.782;19.054;2023-04-03T13:14:18;97808.00;;;3.49;49.08
79331;BME280;68797;49.782;19.054;2023-04-03T13:16:58;97802.78;;;3.48;51.14
79331;BME280;68797;49.782;19.054;2023-04-03T13:19:28;97786.19;;;3.58;50.56
79331;BME280;68797;49.782;19.054;2023-04-03T13:22:44;97794.16;;;3.78;53.08
79331;BME280;68797;49.782;19.054;2023-04-03T13:24:54;97788.78;;;3.47;52.23
79331;BME280;68797;49.782;19.054;2023-04-03T13:27:21;97795.66;;;3.24;50.16
79331;BME280;68797;49.782;19.054;2023-04-03T13:29:53;97802.59;;;3.14;50.85
79331;BME280;68797;49.782;19.054;2023-04-03T13:32:23;97804.34;;;3.18;51.54
79331;BME280;68797;49.782;19.054;2023-04-03T13:34:51;97800.91;;;3.27;52.41
79331;BME280;68797;49.782;19.054;2023-04-03T13:37:28;97794.66;;;3.01;51.02
79331;BME280;68797;49.782;19.054;2023-04-03T13:40:16;97793.09;;;3.35;49.77
79331;BME280;68797;49.782;19.054;2023-04-03T13:42:42;97793.16;;;3.47;48.07
79331;BME280;68797;49.782;19.054;2023-04-03T13:45:27;97791.44;;;3.64;47.57
79331;BME280;68797;49.782;19.054;2023-04-03T13:48:10;97789.66;;;3.53;48.60
79331;BME280;68797;49.782;19.054;2023-04-03T13:51:03;97782.75;;;3.71;49.24
79331;BME280;68797;49.782;19.054;2023-04-03T13:53:32;97788.88;;;3.66;48.35
79331;BME280;68797;49.782;19.054;2023-04-03T13:58:32;97779.13;;;3.43;47.31
79331;BME280;68797;49.782;19.054;2023-04-03T14:01:19;97785.22;;;3.38;47.78
79331;BME280;68797;49.782;19.054;2023-04-03T14:06:22;97793.03;;;3.23;50.03
79331;BME280;68797;49.782;19.054;2023-04-03T14:08:49;97789.44;;;3.08;47.46
79331;BME280;68797;49.782;19.054;2023-04-03T14:11:22;97801.50;;;2.80;48.34
79331;BME280;68797;49.782;19.054;2023-04-03T14:13:50;97803.97;;;2.65;51.06
79331;BME280;68797;49.782;19.054;2023-04-03T14:16:26;97804.66;;;2.40;52.63
79331;BME280;68797;49.782;19.054;2023-04-03T14:18:57;97810.66;;;2.28;53.65
79331;BME280;68797;49.782;19.054;2023-04-03T14:21:26;97810.63;;;2.23;54.73
79331;BME280;68797;49.782;19.054;2023-04-03T14:23:54;97806.25;;;2.25;54.20
79331;BME280;68797;49.782;19.054;2023-04-03T14:26:25;97803.75;;;2.35;53.81
79331;BME280;68797;49.782;19.054;2023-04-03T14:28:54;97796.06;;;2.57;51.92
79331;BME280;68797;49.782;19.054;2023-04-03T14:31:23;97809.28;;;2.74;53.77
79331;BME280;68797;49.782;19.054;2023-04-03T14:33:51;97799.66;;;2.70;53.11
79331;BME280;68797;49.782;19.054;2023-04-03T14:36:22;97792.75;;;2.81;52.98
79331;BME280;68797;49.782;19.054;2023-04-03T14:38:52;97805.06;;;2.93;55.57
79331;BME280;68797;49.782;19.054;2023-04-03T14:41:24;97800.78;;;3.03;53.32
79331;BME280;68797;49.782;19.054;2023-04-03T14:43:53;97786.41;;;2.52;54.51
79331;BME280;68797;49.782;19.054;2023-04-03T14:46:31;97796.06;;;2.57;52.02
79331;BME280;68797;49.782;19.054;2023-04-03T14:48:58;97796.09;;;2.63;52.80
79331;BME280;68797;49.782;19.054;2023-04-03T14:51:28;97789.22;;;2.75;54.72
79331;BME280;68797;49.782;19.054;2023-04-03T14:53:56;97773.47;;;2.70;52.39
79331;BME280;68797;49.782;19.054;2023-04-03T14:56:27;97795.31;;;2.77;50.36
79331;BME280;68797;49.782;19.054;2023-04-03T14:59:01;97794.38;;;2.66;48.95
79331;BME280;68797;49.782;19.054;2023-04-03T15:01:30;97803.09;;;2.61;49.50
79331;BME280;68797;49.782;19.054;2023-04-03T15:03:56;97800.38;;;2.51;49.41
79331;BME280;68797;49.782;19.054;2023-04-03T15:06:23;97803.78;;;2.41;50.37
79331;BME280;68797;49.782;19.054;2023-04-03T15:08:51;97803.78;;;2.42;51.67
79331;BME280;68797;49.782;19.054;2023-04-03T15:11:18;97804.63;;;2.38;50.95
79331;BME280;68797;49.782;19.054;2023-04-03T15:13:46;97798.53;;;2.42;51.08
79331;BME280;68797;49.782;19.054;2023-04-03T15:16:18;97797.63;;;2.36;51.49
79331;BME280;68797;49.782;19.054;2023-04-03T15:18:46;97791.63;;;2.46;51.12
79331;BME280;68797;49.782;19.054;2023-04-03T15:21:13;97792.63;;;2.63;50.74
79331;BME280;68797;49.782;19.054;2023-04-03T15:23:40;97789.03;;;2.53;49.82
79331;BME280;68797;49.782;19.054;2023-04-03T15:26:16;97790.00;;;2.63;50.96
79331;BME280;68797;49.782;19.054;2023-04-03T15:28:43;97786.56;;;2.70;50.19
79331;BME280;68797;49.782;19.054;2023-04-03T15:31:10;97790.00;;;2.63;49.28
79331;BME280;68797;49.782;19.054;2023-04-03T15:33:39;97780.41;;;2.65;49.60
79331;BME280;68797;49.782;19.054;2023-04-03T15:36:06;97780.31;;;2.54;46.64
79331;BME280;68797;49.782;19.054;2023-04-03T15:38:35;97787.34;;;2.57;47.28
79331;BME280;68797;49.782;19.054;2023-04-03T15:41:04;97784.66;;;2.52;47.36
79331;BME280;68797;49.782;19.054;2023-04-03T15:43:31;97789.03;;;2.52;48.35
79331;BME280;68797;49.782;19.054;2023-04-03T15:46:00;97789.19;;;2.69;48.23
79331;BME280;68797;49.782;19.054;2023-04-03T15:48:27;97786.72;;;2.90;47.78
79331;BME280;68797;49.782;19.054;2023-04-03T15:50:54;97797.16;;;2.87;46.89
79331;BME280;68797;49.782;19.054;2023-04-03T15:53:21;97798.00;;;2.83;46.62
79331;BME280;68797;49.782;19.054;2023-04-03T15:55:49;97795.38;;;2.81;45.39
79331;BME280;68797;49.782;19.054;2023-04-03T15:58:15;97789.22;;;2.76;47.04